Saturday, February 24, 2018, 4:55 AM EST
Back to Local

KPWM, Portland International Jetport

Location: Portland, ME, United States Lat: 43.65
Local Time: 4:55 AM EST ( 9:55 GMT) Lon: -70.3
Time Zone: US/Eastern Elev: 75 ft

Show me the last for .
Show Decoded

2018-02-24 03:51 METAR KPWM 240851Z AUTO 24003KT 10SM CLR 02/02 A2994 RMK AO2 SLP141 T00170017
                 56008 $ =
2018-02-24 02:51 METAR KPWM 240751Z AUTO 23008KT 10SM FEW007 02/01 A2995 RMK AO2 SLP142 T00170011
                 $ =
2018-02-24 01:51 METAR KPWM 240651Z AUTO 20007KT 180V240 10SM OVC007 02/01 A2997 RMK AO2 SLP149
                 T00170011 $ =
2018-02-24 00:51 METAR KPWM 240551Z AUTO 22007KT 10SM OVC006 02/01 A2999 RMK AO2 DZE01 SLP156
                 P0000 60014 T00170011 10017 20017 56051 $ =
2018-02-23 23:51 METAR KPWM 240451Z 18009KT 5SM -DZ BR OVC007 02/01 A3003 RMK AO2 SLP171 LAST
                 P0000 T00170011 400221044 $ =
2018-02-23 22:51 METAR KPWM 240351Z 18010KT 5SM -DZ BR BKN009 OVC015 02/01 A3009 RMK AO2
                 DZE18B49RAB30E40 PRESFR SLP189 P0000 T00170011 $ =
2018-02-23 21:51 METAR KPWM 240251Z 18008KT 3SM -DZ BR OVC007 02/02 A3014 RMK AO2 RAE42DZB44
                 PRESFR SLP207 P0003 60014 T00170017 58045 =
2018-02-23 21:26 METAR KPWM 240226Z 17009KT 3SM -RA BR BKN007 BKN015 OVC021 02/01 A3017 RMK AO2
                 PRESFR P0002 T00170011 =
2018-02-23 20:51 METAR KPWM 240151Z 19009KT 3SM -RA BR SCT007 BKN012 OVC018 02/01 A3020 RMK AO2
                 SLP228 P0004 T00170011 =
2018-02-23 19:51 METAR KPWM 240051Z 18011KT 3SM RA BR FEW008 BKN013 OVC020 02/01 A3025 RMK AO2
                 PLE19 PRESFR SLP244 PLB00 P0007 T00170011 =
2018-02-23 19:23 METAR KPWM 240023Z 18013KT 3SM -RA BR BKN013 OVC017 02/01 A3027 RMK AO2 PLE19
                 PLB00 P0003 T00170006 =
2018-02-23 19:21 METAR KPWM 240021Z 18012G20KT 3SM -RA BR OVC017 02/01 A3027 RMK AO2 PLE19 PLB00
                 P0002 T00170006 =
2018-02-23 18:51 METAR KPWM 232351Z 18013G18KT 3SM -PLRA BR BKN015 OVC021 02/01 A3027 RMK AO2
                 PRESFR SLP252 PLB00 P0003 60009 T00170006 10022 20017 58058 =
2018-02-23 18:01 METAR KPWM 232301Z COR 17009G17KT 3SM -PLRA BR SCT015 BKN028 OVC035 02/00 A3031
                 RMK AO2 PLB00 PRESFR P0001 T00170000 =
2018-02-23 17:51 METAR KPWM 232251Z 17010G19KT 4SM -RA BR SCT020 BKN028 OVC035 02/M01 A3033 RMK
                 AO2 RAE06B19PLE31 SLP272 P0004 T00171006 =
2018-02-23 17:33 METAR KPWM 232233Z 17008G16KT 4SM -RA BR BKN026 OVC033 02/M01 A3034 RMK AO2
                 RAE06B19PLE31 PRESFR P0004 T00171006 =
2018-02-23 17:12 METAR KPWM 232212Z 16008KT 2SM PL BR OVC024 02/M01 A3037 RMK AO2 RAE06 PRESFR
                 P0003 T00171011 =
2018-02-23 17:06 METAR KPWM 232206Z 16007KT 4SM PL BR BKN025 OVC031 02/M01 A3038 RMK AO2 RAE06
                 P0001 T00171011 =
2018-02-23 16:51 METAR KPWM 232151Z COR 17008G15KT 5SM -PLRA BR OVC025 02/M02 A3041 RMK AO2
                 SLP298 P0002 T00171017 =
2018-02-23 15:51 METAR KPWM 232051Z 16007KT 10SM -PLRA BKN027 BKN032 OVC065 02/M02 A3044 RMK AO2
                 RAB02PLB02 SLP310 P0000 60000 T00221017 56053 =
2018-02-23 15:03 METAR KPWM 232003Z 17010KT 10SM -PLRA BKN029 OVC085 02/M03 A3048 RMK AO2
                 RAB02PLB02 P0000 T00221028 =
2018-02-23 14:51 METAR KPWM 231951Z 16008KT 10SM BKN028 BKN033 OVC085 02/M03 A3049 RMK AO2 SLP325
                 T00221033 =
2018-02-23 14:15 METAR KPWM 231915Z 15009KT 10SM BKN029 BKN034 OVC150 02/M03 A3051 RMK AO2
                 T00221033 =
2018-02-23 13:51 METAR KPWM 231851Z 14008KT 10SM BKN032 OVC150 02/M03 A3052 RMK AO2 SLP337
                 T00221033 =
2018-02-23 12:51 METAR KPWM 231751Z 15008KT 10SM BKN033 OVC110 02/M04 A3060 RMK AO2 SLP363
                 T00221044 10022 21039 58032 =
2018-02-23 11:51 METAR KPWM 231651Z 12011KT 10SM BKN032 OVC150 02/M05 A3063 RMK AO2 SLP374
                 T00171050 =
2018-02-23 10:51 METAR KPWM 231551Z 11007G17KT 10SM SCT029 BKN200 02/M05 A3066 RMK AO2 SLP385
                 T00221050 =
2018-02-23 09:51 METAR KPWM 231451Z 10010G16KT 10SM FEW035 BKN250 01/M06 A3070 RMK AO2 SLP395
                 T00111056 58010 =
2018-02-23 08:51 METAR KPWM 231351Z 06008KT 10SM FEW150 SCT200 M01/M06 A3071 RMK AO2 SLP399
                 T10061061 =
2018-02-23 07:51 METAR KPWM 231251Z 06007KT 10SM FEW150 SCT200 M02/M08 A3072 RMK AO2 SLP405
                 T10171083 =
2018-02-23 06:51 METAR KPWM 231151Z 01004KT 10SM SCT200 M04/M10 A3072 RMK AO2 SLP405 T10391100
                 11006 21044 55001 =
2018-02-23 05:51 METAR KPWM 231051Z VRB03KT 10SM FEW250 M03/M11 A3072 RMK AO2 SLP405 T10331106 =

Support USWX by starting your Amazon purchase here.